sensor_id;sensor_type;location;lat;lon;timestamp;P1;durP1;ratioP1;P2;durP2;ratioP2
84293;SDS011;74463;51.182;3.210;2024-03-07T00:00:56;46.90;;;22.45;;
84293;SDS011;74463;51.182;3.210;2024-03-07T00:03:25;38.90;;;20.27;;
84293;SDS011;74463;51.182;3.210;2024-03-07T00:09:14;45.67;;;21.00;;
84293;SDS011;74463;51.182;3.210;2024-03-07T00:11:42;45.28;;;23.52;;
84293;SDS011;74463;51.182;3.210;2024-03-07T00:14:11;47.15;;;22.35;;
84293;SDS011;74463;51.182;3.210;2024-03-07T00:19:06;43.47;;;21.27;;
84293;SDS011;74463;51.182;3.210;2024-03-07T00:21:34;42.05;;;21.27;;
84293;SDS011;74463;51.182;3.210;2024-03-07T00:24:01;45.95;;;21.35;;
84293;SDS011;74463;51.182;3.210;2024-03-07T00:26:30;38.60;;;20.65;;
84293;SDS011;74463;51.182;3.210;2024-03-07T00:28:58;43.60;;;21.95;;
84293;SDS011;74463;51.182;3.210;2024-03-07T00:31:27;43.42;;;21.15;;
84293;SDS011;74463;51.182;3.210;2024-03-07T00:33:55;44.75;;;20.95;;
84293;SDS011;74463;51.182;3.210;2024-03-07T00:36:23;42.63;;;21.02;;
84293;SDS011;74463;51.182;3.210;2024-03-07T00:38:51;40.60;;;20.65;;
84293;SDS011;74463;51.182;3.210;2024-03-07T00:41:19;41.87;;;21.20;;
84293;SDS011;74463;51.182;3.210;2024-03-07T00:43:47;41.50;;;21.40;;
84293;SDS011;74463;51.182;3.210;2024-03-07T00:46:15;49.38;;;22.10;;
84293;SDS011;74463;51.182;3.210;2024-03-07T00:48:44;43.38;;;21.73;;
84293;SDS011;74463;51.182;3.210;2024-03-07T00:51:12;40.78;;;20.83;;
84293;SDS011;74463;51.182;3.210;2024-03-07T00:53:40;47.45;;;21.13;;
84293;SDS011;74463;51.182;3.210;2024-03-07T00:56:07;46.20;;;20.52;;
84293;SDS011;74463;51.182;3.210;2024-03-07T00:58:34;48.67;;;22.58;;
84293;SDS011;74463;51.182;3.210;2024-03-07T01:01:02;46.22;;;20.65;;
84293;SDS011;74463;51.182;3.210;2024-03-07T01:03:30;46.25;;;20.95;;
84293;SDS011;74463;51.182;3.210;2024-03-07T01:05:59;42.95;;;20.88;;
84293;SDS011;74463;51.182;3.210;2024-03-07T01:08:26;40.58;;;20.35;;
84293;SDS011;74463;51.182;3.210;2024-03-07T01:10:54;48.60;;;23.05;;
84293;SDS011;74463;51.182;3.210;2024-03-07T01:13:21;45.22;;;20.33;;
84293;SDS011;74463;51.182;3.210;2024-03-07T01:15:49;44.33;;;20.38;;
84293;SDS011;74463;51.182;3.210;2024-03-07T01:18:17;44.85;;;22.23;;
84293;SDS011;74463;51.182;3.210;2024-03-07T01:20:44;46.15;;;21.45;;
84293;SDS011;74463;51.182;3.210;2024-03-07T01:23:13;40.63;;;20.13;;
84293;SDS011;74463;51.182;3.210;2024-03-07T01:25:41;46.63;;;22.80;;
84293;SDS011;74463;51.182;3.210;2024-03-07T01:28:09;45.55;;;22.50;;
84293;SDS011;74463;51.182;3.210;2024-03-07T01:30:39;46.95;;;22.15;;
84293;SDS011;74463;51.182;3.210;2024-03-07T01:33:06;45.00;;;22.55;;
84293;SDS011;74463;51.182;3.210;2024-03-07T01:35:34;49.47;;;22.58;;
84293;SDS011;74463;51.182;3.210;2024-03-07T01:38:01;40.75;;;21.15;;
84293;SDS011;74463;51.182;3.210;2024-03-07T01:40:31;43.42;;;21.60;;
84293;SDS011;74463;51.182;3.210;2024-03-07T01:45:27;42.60;;;20.27;;
84293;SDS011;74463;51.182;3.210;2024-03-07T01:47:55;45.55;;;21.05;;
84293;SDS011;74463;51.182;3.210;2024-03-07T01:50:22;43.15;;;21.23;;
84293;SDS011;74463;51.182;3.210;2024-03-07T01:52:50;48.05;;;22.35;;
84293;SDS011;74463;51.182;3.210;2024-03-07T01:55:20;52.42;;;23.83;;
84293;SDS011;74463;51.182;3.210;2024-03-07T01:57:50;45.37;;;22.33;;
84293;SDS011;74463;51.182;3.210;2024-03-07T02:02:45;41.13;;;21.40;;
84293;SDS011;74463;51.182;3.210;2024-03-07T02:05:13;47.60;;;21.55;;
84293;SDS011;74463;51.182;3.210;2024-03-07T02:07:41;44.28;;;22.05;;
84293;SDS011;74463;51.182;3.210;2024-03-07T02:10:10;50.10;;;23.80;;
84293;SDS011;74463;51.182;3.210;2024-03-07T02:12:38;44.95;;;23.60;;
84293;SDS011;74463;51.182;3.210;2024-03-07T02:15:08;43.63;;;21.48;;
84293;SDS011;74463;51.182;3.210;2024-03-07T02:17:35;47.20;;;25.00;;
84293;SDS011;74463;51.182;3.210;2024-03-07T02:20:03;47.53;;;24.27;;
84293;SDS011;74463;51.182;3.210;2024-03-07T02:22:34;49.10;;;23.85;;
84293;SDS011;74463;51.182;3.210;2024-03-07T02:25:02;48.53;;;23.98;;
84293;SDS011;74463;51.182;3.210;2024-03-07T02:27:30;52.60;;;24.60;;
84293;SDS011;74463;51.182;3.210;2024-03-07T02:29:58;52.50;;;25.35;;
84293;SDS011;74463;51.182;3.210;2024-03-07T02:34:54;50.20;;;23.67;;
84293;SDS011;74463;51.182;3.210;2024-03-07T02:37:21;53.10;;;23.77;;
84293;SDS011;74463;51.182;3.210;2024-03-07T02:39:50;53.05;;;26.02;;
84293;SDS011;74463;51.182;3.210;2024-03-07T02:42:18;53.35;;;27.35;;
84293;SDS011;74463;51.182;3.210;2024-03-07T02:44:46;54.30;;;26.42;;
84293;SDS011;74463;51.182;3.210;2024-03-07T02:47:14;52.50;;;26.52;;
84293;SDS011;74463;51.182;3.210;2024-03-07T02:49:42;59.65;;;28.95;;
84293;SDS011;74463;51.182;3.210;2024-03-07T02:52:10;55.17;;;25.70;;
84293;SDS011;74463;51.182;3.210;2024-03-07T02:54:38;48.53;;;23.67;;
84293;SDS011;74463;51.182;3.210;2024-03-07T02:57:07;51.42;;;25.10;;
84293;SDS011;74463;51.182;3.210;2024-03-07T02:59:36;51.50;;;23.92;;
84293;SDS011;74463;51.182;3.210;2024-03-07T03:02:04;50.95;;;25.05;;
84293;SDS011;74463;51.182;3.210;2024-03-07T03:04:32;51.80;;;25.83;;
84293;SDS011;74463;51.182;3.210;2024-03-07T03:06:59;53.90;;;25.52;;
84293;SDS011;74463;51.182;3.210;2024-03-07T03:09:27;49.92;;;25.40;;
84293;SDS011;74463;51.182;3.210;2024-03-07T03:11:55;52.50;;;25.27;;
84293;SDS011;74463;51.182;3.210;2024-03-07T03:14:24;55.72;;;25.60;;
84293;SDS011;74463;51.182;3.210;2024-03-07T03:16:51;51.30;;;25.58;;
84293;SDS011;74463;51.182;3.210;2024-03-07T03:19:19;52.85;;;25.65;;
84293;SDS011;74463;51.182;3.210;2024-03-07T03:24:15;50.13;;;25.33;;
84293;SDS011;74463;51.182;3.210;2024-03-07T03:26:43;52.53;;;24.83;;
84293;SDS011;74463;51.182;3.210;2024-03-07T03:29:11;57.72;;;27.75;;
84293;SDS011;74463;51.182;3.210;2024-03-07T03:31:40;57.67;;;26.77;;
84293;SDS011;74463;51.182;3.210;2024-03-07T03:34:09;60.28;;;26.73;;
84293;SDS011;74463;51.182;3.210;2024-03-07T03:36:36;58.38;;;26.88;;
84293;SDS011;74463;51.182;3.210;2024-03-07T03:39:04;57.63;;;27.67;;
84293;SDS011;74463;51.182;3.210;2024-03-07T03:41:32;63.58;;;28.33;;
84293;SDS011;74463;51.182;3.210;2024-03-07T03:44:00;62.08;;;28.13;;
84293;SDS011;74463;51.182;3.210;2024-03-07T03:46:28;52.63;;;27.75;;
84293;SDS011;74463;51.182;3.210;2024-03-07T03:48:58;63.75;;;28.30;;
84293;SDS011;74463;51.182;3.210;2024-03-07T03:51:25;60.08;;;26.75;;
84293;SDS011;74463;51.182;3.210;2024-03-07T03:53:53;59.85;;;26.88;;
84293;SDS011;74463;51.182;3.210;2024-03-07T03:56:21;62.28;;;28.77;;
84293;SDS011;74463;51.182;3.210;2024-03-07T03:58:48;56.05;;;28.98;;
84293;SDS011;74463;51.182;3.210;2024-03-07T04:01:16;64.85;;;30.65;;
84293;SDS011;74463;51.182;3.210;2024-03-07T04:03:43;70.15;;;29.65;;
84293;SDS011;74463;51.182;3.210;2024-03-07T04:06:13;66.17;;;29.10;;
84293;SDS011;74463;51.182;3.210;2024-03-07T04:08:41;62.67;;;29.55;;
84293;SDS011;74463;51.182;3.210;2024-03-07T04:11:08;60.13;;;29.20;;
84293;SDS011;74463;51.182;3.210;2024-03-07T04:13:36;68.60;;;31.05;;
84293;SDS011;74463;51.182;3.210;2024-03-07T04:16:04;66.43;;;30.70;;
84293;SDS011;74463;51.182;3.210;2024-03-07T04:18:31;67.10;;;31.42;;
84293;SDS011;74463;51.182;3.210;2024-03-07T04:20:59;74.90;;;32.83;;
84293;SDS011;74463;51.182;3.210;2024-03-07T04:23:28;68.97;;;30.50;;
84293;SDS011;74463;51.182;3.210;2024-03-07T04:25:56;67.18;;;31.20;;
84293;SDS011;74463;51.182;3.210;2024-03-07T04:28:23;72.53;;;31.23;;
84293;SDS011;74463;51.182;3.210;2024-03-07T04:30:51;63.33;;;30.27;;
84293;SDS011;74463;51.182;3.210;2024-03-07T04:33:19;72.38;;;32.20;;
84293;SDS011;74463;51.182;3.210;2024-03-07T04:35:47;78.00;;;34.35;;
84293;SDS011;74463;51.182;3.210;2024-03-07T04:38:14;69.50;;;31.23;;
84293;SDS011;74463;51.182;3.210;2024-03-07T04:40:43;76.10;;;33.30;;
84293;SDS011;74463;51.182;3.210;2024-03-07T04:43:11;72.32;;;33.13;;
84293;SDS011;74463;51.182;3.210;2024-03-07T04:48:08;72.60;;;30.92;;
84293;SDS011;74463;51.182;3.210;2024-03-07T04:50:36;72.75;;;32.33;;
84293;SDS011;74463;51.182;3.210;2024-03-07T04:53:04;74.13;;;33.17;;
84293;SDS011;74463;51.182;3.210;2024-03-07T04:55:31;72.45;;;32.03;;
84293;SDS011;74463;51.182;3.210;2024-03-07T04:58:00;80.72;;;33.38;;
84293;SDS011;74463;51.182;3.210;2024-03-07T05:00:28;78.47;;;33.10;;
84293;SDS011;74463;51.182;3.210;2024-03-07T05:02:56;85.13;;;33.97;;
84293;SDS011;74463;51.182;3.210;2024-03-07T05:05:24;77.03;;;33.45;;
84293;SDS011;74463;51.182;3.210;2024-03-07T05:07:51;73.18;;;32.10;;
84293;SDS011;74463;51.182;3.210;2024-03-07T05:12:48;70.32;;;30.08;;
84293;SDS011;74463;51.182;3.210;2024-03-07T05:15:17;76.15;;;31.40;;
84293;SDS011;74463;51.182;3.210;2024-03-07T05:17:45;70.10;;;30.95;;
84293;SDS011;74463;51.182;3.210;2024-03-07T05:20:12;76.90;;;31.88;;
84293;SDS011;74463;51.182;3.210;2024-03-07T05:22:40;78.45;;;33.20;;
84293;SDS011;74463;51.182;3.210;2024-03-07T05:25:12;74.38;;;32.30;;
84293;SDS011;74463;51.182;3.210;2024-03-07T05:27:41;78.05;;;33.85;;
84293;SDS011;74463;51.182;3.210;2024-03-07T05:30:10;76.57;;;32.47;;
84293;SDS011;74463;51.182;3.210;2024-03-07T05:32:40;74.63;;;32.78;;
84293;SDS011;74463;51.182;3.210;2024-03-07T05:37:36;74.63;;;30.40;;
84293;SDS011;74463;51.182;3.210;2024-03-07T05:40:07;69.85;;;29.27;;
84293;SDS011;74463;51.182;3.210;2024-03-07T05:42:35;68.88;;;30.83;;
84293;SDS011;74463;51.182;3.210;2024-03-07T05:45:03;79.50;;;33.88;;
84293;SDS011;74463;51.182;3.210;2024-03-07T05:47:33;79.05;;;30.95;;
84293;SDS011;74463;51.182;3.210;2024-03-07T05:50:02;72.70;;;33.15;;
84293;SDS011;74463;51.182;3.210;2024-03-07T05:52:32;73.68;;;31.30;;
84293;SDS011;74463;51.182;3.210;2024-03-07T05:55:00;83.35;;;33.03;;
84293;SDS011;74463;51.182;3.210;2024-03-07T05:57:28;79.78;;;33.47;;
84293;SDS011;74463;51.182;3.210;2024-03-07T05:59:55;78.50;;;33.80;;
84293;SDS011;74463;51.182;3.210;2024-03-07T06:02:23;77.25;;;33.72;;
84293;SDS011;74463;51.182;3.210;2024-03-07T06:04:50;88.00;;;33.10;;
84293;SDS011;74463;51.182;3.210;2024-03-07T06:07:19;77.93;;;34.90;;
84293;SDS011;74463;51.182;3.210;2024-03-07T06:09:47;81.15;;;33.20;;
84293;SDS011;74463;51.182;3.210;2024-03-07T06:12:15;83.40;;;33.25;;
84293;SDS011;74463;51.182;3.210;2024-03-07T06:14:43;84.82;;;34.55;;
84293;SDS011;74463;51.182;3.210;2024-03-07T06:17:10;86.85;;;35.13;;
84293;SDS011;74463;51.182;3.210;2024-03-07T06:19:38;84.43;;;34.53;;
84293;SDS011;74463;51.182;3.210;2024-03-07T06:22:05;75.25;;;32.28;;
84293;SDS011;74463;51.182;3.210;2024-03-07T06:24:35;72.70;;;31.67;;
84293;SDS011;74463;51.182;3.210;2024-03-07T06:27:05;79.47;;;34.17;;
84293;SDS011;74463;51.182;3.210;2024-03-07T06:29:41;81.43;;;34.10;;
84293;SDS011;74463;51.182;3.210;2024-03-07T06:32:09;83.35;;;34.55;;
84293;SDS011;74463;51.182;3.210;2024-03-07T06:34:37;78.15;;;34.42;;
84293;SDS011;74463;51.182;3.210;2024-03-07T06:37:04;77.18;;;33.03;;
84293;SDS011;74463;51.182;3.210;2024-03-07T06:42:02;76.35;;;31.77;;
84293;SDS011;74463;51.182;3.210;2024-03-07T06:44:30;82.70;;;32.53;;
84293;SDS011;74463;51.182;3.210;2024-03-07T06:46:58;87.22;;;34.78;;
84293;SDS011;74463;51.182;3.210;2024-03-07T06:49:26;73.75;;;32.00;;
84293;SDS011;74463;51.182;3.210;2024-03-07T06:51:53;79.72;;;34.70;;
84293;SDS011;74463;51.182;3.210;2024-03-07T06:54:22;75.07;;;33.53;;
84293;SDS011;74463;51.182;3.210;2024-03-07T06:56:51;83.38;;;34.95;;
84293;SDS011;74463;51.182;3.210;2024-03-07T07:01:45;74.70;;;32.05;;
84293;SDS011;74463;51.182;3.210;2024-03-07T07:04:13;80.70;;;35.78;;
84293;SDS011;74463;51.182;3.210;2024-03-07T07:06:41;93.90;;;37.75;;
84293;SDS011;74463;51.182;3.210;2024-03-07T07:09:08;91.75;;;36.17;;
84293;SDS011;74463;51.182;3.210;2024-03-07T07:11:36;87.07;;;35.50;;
84293;SDS011;74463;51.182;3.210;2024-03-07T07:14:05;82.28;;;33.75;;
84293;SDS011;74463;51.182;3.210;2024-03-07T07:16:33;89.00;;;35.83;;
84293;SDS011;74463;51.182;3.210;2024-03-07T07:19:01;78.95;;;34.28;;
84293;SDS011;74463;51.182;3.210;2024-03-07T07:21:28;80.22;;;35.38;;
84293;SDS011;74463;51.182;3.210;2024-03-07T07:23:56;81.35;;;36.38;;
84293;SDS011;74463;51.182;3.210;2024-03-07T07:26:24;88.90;;;36.13;;
84293;SDS011;74463;51.182;3.210;2024-03-07T07:28:52;85.00;;;37.67;;
84293;SDS011;74463;51.182;3.210;2024-03-07T07:31:21;84.63;;;36.83;;
84293;SDS011;74463;51.182;3.210;2024-03-07T07:33:49;83.65;;;35.03;;
84293;SDS011;74463;51.182;3.210;2024-03-07T07:36:17;87.97;;;36.53;;
84293;SDS011;74463;51.182;3.210;2024-03-07T07:38:44;85.72;;;36.33;;
84293;SDS011;74463;51.182;3.210;2024-03-07T07:41:12;87.35;;;36.05;;
84293;SDS011;74463;51.182;3.210;2024-03-07T07:43:40;86.63;;;34.80;;
84293;SDS011;74463;51.182;3.210;2024-03-07T07:46:07;85.60;;;36.45;;
84293;SDS011;74463;51.182;3.210;2024-03-07T07:48:36;83.68;;;35.17;;
84293;SDS011;74463;51.182;3.210;2024-03-07T07:51:05;86.63;;;37.90;;
84293;SDS011;74463;51.182;3.210;2024-03-07T07:53:32;89.82;;;35.70;;
84293;SDS011;74463;51.182;3.210;2024-03-07T07:56:00;86.55;;;38.22;;
84293;SDS011;74463;51.182;3.210;2024-03-07T07:58:28;89.18;;;37.38;;
84293;SDS011;74463;51.182;3.210;2024-03-07T08:00:55;90.32;;;35.30;;
84293;SDS011;74463;51.182;3.210;2024-03-07T08:03:23;90.38;;;39.83;;
84293;SDS011;74463;51.182;3.210;2024-03-07T08:05:53;84.82;;;36.22;;
84293;SDS011;74463;51.182;3.210;2024-03-07T08:10:48;94.75;;;36.67;;
84293;SDS011;74463;51.182;3.210;2024-03-07T08:13:16;85.82;;;35.30;;
84293;SDS011;74463;51.182;3.210;2024-03-07T08:15:43;84.20;;;37.05;;
84293;SDS011;74463;51.182;3.210;2024-03-07T08:18:11;81.43;;;36.40;;
84293;SDS011;74463;51.182;3.210;2024-03-07T08:20:39;89.03;;;37.63;;
84293;SDS011;74463;51.182;3.210;2024-03-07T08:23:09;96.45;;;40.42;;
84293;SDS011;74463;51.182;3.210;2024-03-07T08:25:38;92.25;;;38.50;;
84293;SDS011;74463;51.182;3.210;2024-03-07T08:28:07;87.30;;;36.72;;
84293;SDS011;74463;51.182;3.210;2024-03-07T08:30:34;91.07;;;38.33;;
84293;SDS011;74463;51.182;3.210;2024-03-07T08:33:02;94.05;;;38.55;;
84293;SDS011;74463;51.182;3.210;2024-03-07T08:35:30;93.55;;;38.80;;
84293;SDS011;74463;51.182;3.210;2024-03-07T08:37:58;83.85;;;37.15;;
84293;SDS011;74463;51.182;3.210;2024-03-07T08:40:27;83.32;;;37.38;;
84293;SDS011;74463;51.182;3.210;2024-03-07T08:42:58;91.38;;;38.00;;
84293;SDS011;74463;51.182;3.210;2024-03-07T08:45:26;94.07;;;38.17;;
84293;SDS011;74463;51.182;3.210;2024-03-07T08:47:55;90.90;;;41.17;;
84293;SDS011;74463;51.182;3.210;2024-03-07T08:50:23;102.60;;;42.50;;
84293;SDS011;74463;51.182;3.210;2024-03-07T08:52:51;109.22;;;44.67;;
84293;SDS011;74463;51.182;3.210;2024-03-07T08:55:19;101.90;;;42.58;;
84293;SDS011;74463;51.182;3.210;2024-03-07T08:57:48;103.75;;;44.95;;
84293;SDS011;74463;51.182;3.210;2024-03-07T09:00:16;102.28;;;42.13;;
84293;SDS011;74463;51.182;3.210;2024-03-07T09:02:49;95.28;;;43.75;;
84293;SDS011;74463;51.182;3.210;2024-03-07T09:05:18;94.88;;;42.92;;
84293;SDS011;74463;51.182;3.210;2024-03-07T09:10:15;105.13;;;45.13;;
84293;SDS011;74463;51.182;3.210;2024-03-07T09:12:43;105.25;;;45.20;;
84293;SDS011;74463;51.182;3.210;2024-03-07T09:15:12;110.97;;;43.75;;
84293;SDS011;74463;51.182;3.210;2024-03-07T09:17:42;91.95;;;39.97;;
84293;SDS011;74463;51.182;3.210;2024-03-07T09:20:11;92.85;;;41.80;;
84293;SDS011;74463;51.182;3.210;2024-03-07T09:22:40;93.80;;;39.47;;
84293;SDS011;74463;51.182;3.210;2024-03-07T09:25:08;92.35;;;39.95;;
84293;SDS011;74463;51.182;3.210;2024-03-07T09:27:38;95.10;;;39.30;;
84293;SDS011;74463;51.182;3.210;2024-03-07T09:30:06;92.97;;;38.50;;
84293;SDS011;74463;51.182;3.210;2024-03-07T09:32:39;87.95;;;37.60;;
84293;SDS011;74463;51.182;3.210;2024-03-07T09:35:07;90.00;;;39.00;;
84293;SDS011;74463;51.182;3.210;2024-03-07T09:37:39;90.72;;;38.58;;
84293;SDS011;74463;51.182;3.210;2024-03-07T09:40:08;87.18;;;38.78;;
84293;SDS011;74463;51.182;3.210;2024-03-07T09:42:37;91.97;;;39.40;;
84293;SDS011;74463;51.182;3.210;2024-03-07T09:45:10;77.72;;;36.50;;
84293;SDS011;74463;51.182;3.210;2024-03-07T09:47:42;79.55;;;34.78;;
84293;SDS011;74463;51.182;3.210;2024-03-07T09:50:13;77.30;;;35.05;;
84293;SDS011;74463;51.182;3.210;2024-03-07T09:52:46;74.90;;;34.58;;
84293;SDS011;74463;51.182;3.210;2024-03-07T09:55:16;77.57;;;32.90;;
84293;SDS011;74463;51.182;3.210;2024-03-07T09:57:45;74.72;;;34.63;;
84293;SDS011;74463;51.182;3.210;2024-03-07T10:00:15;72.80;;;32.40;;
84293;SDS011;74463;51.182;3.210;2024-03-07T10:02:50;74.60;;;33.35;;
84293;SDS011;74463;51.182;3.210;2024-03-07T10:05:23;74.78;;;35.75;;
84293;SDS011;74463;51.182;3.210;2024-03-07T10:07:54;78.18;;;34.30;;
84293;SDS011;74463;51.182;3.210;2024-03-07T10:10:23;73.47;;;31.02;;
84293;SDS011;74463;51.182;3.210;2024-03-07T10:12:51;77.85;;;35.17;;
84293;SDS011;74463;51.182;3.210;2024-03-07T10:15:19;71.72;;;34.15;;
84293;SDS011;74463;51.182;3.210;2024-03-07T10:17:48;70.30;;;32.78;;
84293;SDS011;74463;51.182;3.210;2024-03-07T10:20:18;78.72;;;33.90;;
84293;SDS011;74463;51.182;3.210;2024-03-07T10:22:47;77.00;;;33.53;;
84293;SDS011;74463;51.182;3.210;2024-03-07T10:25:17;81.55;;;33.92;;
84293;SDS011;74463;51.182;3.210;2024-03-07T10:27:46;73.38;;;31.48;;
84293;SDS011;74463;51.182;3.210;2024-03-07T10:30:15;78.68;;;33.00;;
84293;SDS011;74463;51.182;3.210;2024-03-07T10:32:46;66.38;;;31.30;;
84293;SDS011;74463;51.182;3.210;2024-03-07T10:35:21;68.85;;;32.55;;
84293;SDS011;74463;51.182;3.210;2024-03-07T10:37:49;68.22;;;29.33;;
84293;SDS011;74463;51.182;3.210;2024-03-07T10:40:19;61.83;;;29.48;;
84293;SDS011;74463;51.182;3.210;2024-03-07T10:42:47;67.70;;;31.50;;
84293;SDS011;74463;51.182;3.210;2024-03-07T10:45:18;62.08;;;29.20;;
84293;SDS011;74463;51.182;3.210;2024-03-07T10:47:49;67.45;;;30.00;;
84293;SDS011;74463;51.182;3.210;2024-03-07T10:50:27;66.50;;;30.60;;
84293;SDS011;74463;51.182;3.210;2024-03-07T10:53:07;71.43;;;31.50;;
84293;SDS011;74463;51.182;3.210;2024-03-07T10:55:42;61.50;;;30.27;;
84293;SDS011;74463;51.182;3.210;2024-03-07T10:58:22;66.03;;;31.70;;
84293;SDS011;74463;51.182;3.210;2024-03-07T11:01:00;63.85;;;30.08;;
84293;SDS011;74463;51.182;3.210;2024-03-07T11:03:31;62.17;;;28.67;;
84293;SDS011;74463;51.182;3.210;2024-03-07T11:06:02;61.35;;;29.38;;
84293;SDS011;74463;51.182;3.210;2024-03-07T11:08:36;55.95;;;26.63;;
84293;SDS011;74463;51.182;3.210;2024-03-07T11:11:04;55.80;;;26.70;;
84293;SDS011;74463;51.182;3.210;2024-03-07T11:13:33;56.00;;;27.13;;
84293;SDS011;74463;51.182;3.210;2024-03-07T11:16:03;62.58;;;28.67;;
84293;SDS011;74463;51.182;3.210;2024-03-07T11:18:33;54.65;;;27.20;;
84293;SDS011;74463;51.182;3.210;2024-03-07T11:21:02;53.40;;;27.48;;
84293;SDS011;74463;51.182;3.210;2024-03-07T11:23:32;58.63;;;27.00;;
84293;SDS011;74463;51.182;3.210;2024-03-07T11:26:03;52.45;;;27.35;;
84293;SDS011;74463;51.182;3.210;2024-03-07T11:28:33;56.15;;;27.38;;
84293;SDS011;74463;51.182;3.210;2024-03-07T11:31:15;54.15;;;26.60;;
84293;SDS011;74463;51.182;3.210;2024-03-07T11:36:45;52.53;;;27.30;;
84293;SDS011;74463;51.182;3.210;2024-03-07T11:42:08;45.75;;;25.27;;
84293;SDS011;74463;51.182;3.210;2024-03-07T11:44:36;43.27;;;23.73;;
84293;SDS011;74463;51.182;3.210;2024-03-07T11:47:05;39.50;;;22.95;;
84293;SDS011;74463;51.182;3.210;2024-03-07T11:49:35;42.97;;;24.70;;
84293;SDS011;74463;51.182;3.210;2024-03-07T11:52:04;46.95;;;23.45;;
84293;SDS011;74463;51.182;3.210;2024-03-07T11:54:37;35.10;;;21.80;;
84293;SDS011;74463;51.182;3.210;2024-03-07T11:57:06;37.80;;;24.30;;
84293;SDS011;74463;51.182;3.210;2024-03-07T11:59:38;38.95;;;22.83;;
84293;SDS011;74463;51.182;3.210;2024-03-07T12:02:11;47.80;;;24.48;;
84293;SDS011;74463;51.182;3.210;2024-03-07T12:04:40;37.33;;;21.95;;
84293;SDS011;74463;51.182;3.210;2024-03-07T12:07:10;38.50;;;23.05;;
84293;SDS011;74463;51.182;3.210;2024-03-07T12:09:37;35.10;;;21.88;;
84293;SDS011;74463;51.182;3.210;2024-03-07T12:12:05;35.87;;;23.13;;
84293;SDS011;74463;51.182;3.210;2024-03-07T12:14:34;33.30;;;22.58;;
84293;SDS011;74463;51.182;3.210;2024-03-07T12:17:02;36.63;;;23.27;;
84293;SDS011;74463;51.182;3.210;2024-03-07T12:19:31;43.63;;;24.55;;
84293;SDS011;74463;51.182;3.210;2024-03-07T12:22:00;35.35;;;23.83;;
84293;SDS011;74463;51.182;3.210;2024-03-07T12:24:30;37.97;;;24.50;;
84293;SDS011;74463;51.182;3.210;2024-03-07T12:27:08;40.00;;;24.63;;
84293;SDS011;74463;51.182;3.210;2024-03-07T12:29:37;42.55;;;24.65;;
84293;SDS011;74463;51.182;3.210;2024-03-07T12:32:05;41.40;;;25.08;;
84293;SDS011;74463;51.182;3.210;2024-03-07T12:34:35;41.60;;;25.73;;
84293;SDS011;74463;51.182;3.210;2024-03-07T12:37:06;40.30;;;24.90;;
84293;SDS011;74463;51.182;3.210;2024-03-07T12:39:36;41.28;;;24.50;;
84293;SDS011;74463;51.182;3.210;2024-03-07T12:42:11;42.05;;;24.67;;
84293;SDS011;74463;51.182;3.210;2024-03-07T12:44:42;39.85;;;26.30;;
84293;SDS011;74463;51.182;3.210;2024-03-07T12:47:11;36.03;;;23.23;;
84293;SDS011;74463;51.182;3.210;2024-03-07T12:49:39;33.08;;;23.65;;
84293;SDS011;74463;51.182;3.210;2024-03-07T12:52:07;31.70;;;23.30;;
84293;SDS011;74463;51.182;3.210;2024-03-07T12:54:37;34.75;;;23.98;;
84293;SDS011;74463;51.182;3.210;2024-03-07T12:57:06;33.20;;;24.02;;
84293;SDS011;74463;51.182;3.210;2024-03-07T12:59:34;31.33;;;22.73;;
84293;SDS011;74463;51.182;3.210;2024-03-07T13:02:05;28.48;;;22.80;;
84293;SDS011;74463;51.182;3.210;2024-03-07T13:04:33;31.42;;;22.60;;
84293;SDS011;74463;51.182;3.210;2024-03-07T13:07:03;30.38;;;23.80;;
84293;SDS011;74463;51.182;3.210;2024-03-07T13:09:30;29.10;;;22.27;;
84293;SDS011;74463;51.182;3.210;2024-03-07T13:11:59;29.23;;;21.33;;
84293;SDS011;74463;51.182;3.210;2024-03-07T13:14:29;24.75;;;21.60;;
84293;SDS011;74463;51.182;3.210;2024-03-07T13:16:59;25.95;;;21.85;;
84293;SDS011;74463;51.182;3.210;2024-03-07T13:19:27;27.00;;;20.33;;
84293;SDS011;74463;51.182;3.210;2024-03-07T13:21:55;27.27;;;22.73;;
84293;SDS011;74463;51.182;3.210;2024-03-07T13:24:24;25.90;;;22.08;;
84293;SDS011;74463;51.182;3.210;2024-03-07T13:26:53;25.95;;;21.65;;
84293;SDS011;74463;51.182;3.210;2024-03-07T13:29:22;25.73;;;21.00;;
84293;SDS011;74463;51.182;3.210;2024-03-07T13:31:50;29.58;;;21.10;;
84293;SDS011;74463;51.182;3.210;2024-03-07T13:34:21;24.30;;;20.50;;
84293;SDS011;74463;51.182;3.210;2024-03-07T13:36:51;27.17;;;21.35;;
84293;SDS011;74463;51.182;3.210;2024-03-07T13:39:19;26.13;;;19.75;;
84293;SDS011;74463;51.182;3.210;2024-03-07T13:44:14;23.65;;;19.80;;
84293;SDS011;74463;51.182;3.210;2024-03-07T13:46:45;25.30;;;19.85;;
84293;SDS011;74463;51.182;3.210;2024-03-07T13:49:13;24.83;;;19.70;;
84293;SDS011;74463;51.182;3.210;2024-03-07T13:51:43;25.98;;;20.48;;
84293;SDS011;74463;51.182;3.210;2024-03-07T13:54:18;22.30;;;18.70;;
84293;SDS011;74463;51.182;3.210;2024-03-07T13:57:09;24.50;;;19.30;;
84293;SDS011;74463;51.182;3.210;2024-03-07T14:05:54;23.88;;;19.77;;
84293;SDS011;74463;51.182;3.210;2024-03-07T14:08:32;24.27;;;19.88;;
84293;SDS011;74463;51.182;3.210;2024-03-07T14:11:28;25.95;;;18.98;;
84293;SDS011;74463;51.182;3.210;2024-03-07T14:14:21;23.17;;;18.38;;
84293;SDS011;74463;51.182;3.210;2024-03-07T14:23:41;24.00;;;20.25;;
84293;SDS011;74463;51.182;3.210;2024-03-07T14:26:46;23.30;;;20.83;;
84293;SDS011;74463;51.182;3.210;2024-03-07T14:29:56;24.92;;;20.05;;
84293;SDS011;74463;51.182;3.210;2024-03-07T14:32:38;24.80;;;19.95;;
84293;SDS011;74463;51.182;3.210;2024-03-07T14:35:10;24.80;;;21.25;;
84293;SDS011;74463;51.182;3.210;2024-03-07T14:37:45;24.98;;;20.33;;
84293;SDS011;74463;51.182;3.210;2024-03-07T14:40:21;23.50;;;20.92;;
84293;SDS011;74463;51.182;3.210;2024-03-07T14:42:50;25.02;;;21.17;;
84293;SDS011;74463;51.182;3.210;2024-03-07T14:45:26;26.77;;;21.52;;
84293;SDS011;74463;51.182;3.210;2024-03-07T14:47:57;26.25;;;20.70;;
84293;SDS011;74463;51.182;3.210;2024-03-07T14:52:55;28.05;;;20.85;;
84293;SDS011;74463;51.182;3.210;2024-03-07T14:55:24;28.23;;;20.80;;
84293;SDS011;74463;51.182;3.210;2024-03-07T14:57:52;28.25;;;21.38;;
84293;SDS011;74463;51.182;3.210;2024-03-07T15:00:20;27.55;;;22.17;;
84293;SDS011;74463;51.182;3.210;2024-03-07T15:02:52;29.10;;;22.25;;
84293;SDS011;74463;51.182;3.210;2024-03-07T15:05:22;28.08;;;22.48;;
84293;SDS011;74463;51.182;3.210;2024-03-07T15:07:50;28.52;;;22.25;;
84293;SDS011;74463;51.182;3.210;2024-03-07T15:10:19;27.65;;;22.85;;
84293;SDS011;74463;51.182;3.210;2024-03-07T15:12:53;30.05;;;24.17;;
84293;SDS011;74463;51.182;3.210;2024-03-07T15:15:21;29.88;;;23.98;;
84293;SDS011;74463;51.182;3.210;2024-03-07T15:17:49;28.55;;;23.92;;
84293;SDS011;74463;51.182;3.210;2024-03-07T15:22:49;28.70;;;25.00;;
84293;SDS011;74463;51.182;3.210;2024-03-07T15:25:18;28.58;;;24.17;;
84293;SDS011;74463;51.182;3.210;2024-03-07T15:27:48;31.77;;;24.13;;
84293;SDS011;74463;51.182;3.210;2024-03-07T15:32:45;29.70;;;25.27;;
84293;SDS011;74463;51.182;3.210;2024-03-07T15:35:15;30.10;;;25.58;;